^^
TXWeather Station Historical Data
Daily Summary for May 25, 2022 Units:  Metric    English   Both
Daily Weekly Monthly Yearly Custom
  High: Low: Average:
Temperature: 28.9 °C 17.2 °C 22.8 °C
Dew Point: 20.6 °C 15 °C 17.6 °C
Humidity: 92% 50% 74%
Wind Speed: 32.2km/h 0km/h 10.5km/h
Wind Gust: 37km/h - -
Wind- - West
Pressure: 1015.8 hPa 1009 hPa -
Precipitation: 14.99 mm    
Historical Graphs
 
 
Tabular Data for May 25, 2022
Time Temperature Dew Point Pressure Wind Wind Speed Wind Gust Humidity Rainfall Rate (Hourly) solar
00:04 23.3 °C 20 °C 1009 hPa SE 9.7 km/h 11.3 km/h 83% 0 mm 0.00 W/m2
00:09 23.3 °C 20 °C 1009 hPa SE 6.4 km/h 11.3 km/h 83% 0 mm 0.00 W/m2
00:14 23.3 °C 20.6 °C 1009 hPa SE 8 km/h 11.3 km/h 84% 0 mm 0.00 W/m2
00:19 23.3 °C 20.6 °C 1009 hPa SE 11.3 km/h 11.3 km/h 84% 0 mm 0.00 W/m2
00:24 23.3 °C 20.6 °C 1009 hPa SE 8 km/h 9.7 km/h 84% 0 mm 0.00 W/m2
00:29 23.3 °C 20.6 °C 1009 hPa SE 11.3 km/h 11.3 km/h 84% 0 mm 0.00 W/m2
00:34 23.3 °C 20.6 °C 1009 hPa SE 8 km/h 8 km/h 84% 0 mm 0.00 W/m2
00:39 23.3 °C 20.6 °C 1009 hPa SE 8 km/h 8 km/h 84% 0 mm 0.00 W/m2
00:44 23.3 °C 20.6 °C 1009 hPa SE 6.4 km/h 8 km/h 84% 0 mm 0.00 W/m2
00:49 23.3 °C 20.6 °C 1009 hPa SE 6.4 km/h 6.4 km/h 84% 0 mm 0.00 W/m2
00:54 23.3 °C 20.6 °C 1009 hPa SE 4.8 km/h 6.4 km/h 84% 0 mm 0.00 W/m2
00:59 23.3 °C 20.6 °C 1009 hPa SE 6.4 km/h 9.7 km/h 85% 0 mm 0.00 W/m2
01:04 23.3 °C 20.6 °C 1009 hPa SE 8 km/h 8 km/h 85% 0 mm 0.00 W/m2
01:09 23.3 °C 20.6 °C 1009 hPa SE 4.8 km/h 8 km/h 85% 0 mm 0.00 W/m2
01:14 23.3 °C 20.6 °C 1009 hPa SSE 3.2 km/h 3.2 km/h 85% 0 mm 0.00 W/m2
01:19 23.3 °C 20.6 °C 1009 hPa SSE 4.8 km/h 4.8 km/h 85% 0 mm 0.00 W/m2
01:24 23.3 °C 20.6 °C 1009 hPa SE 4.8 km/h 4.8 km/h 85% 0 mm 0.00 W/m2
01:29 23.3 °C 20.6 °C 1009 hPa SE 4.8 km/h 4.8 km/h 85% 0 mm 0.00 W/m2
01:34 23.3 °C 20.6 °C 1009 hPa SE 6.4 km/h 6.4 km/h 85% 0 mm 0.00 W/m2
01:39 23.3 °C 20.6 °C 1009 hPa SE 4.8 km/h 6.4 km/h 85% 0 mm 0.00 W/m2
01:44 23.3 °C 20.6 °C 1009 hPa SE 4.8 km/h 8 km/h 85% 0 mm 0.00 W/m2
01:49 23.3 °C 20.6 °C 1009 hPa SSE 3.2 km/h 8 km/h 85% 0 mm 0.00 W/m2
01:54 23.3 °C 20.6 °C 1009 hPa SSE 6.4 km/h 6.4 km/h 85% 0 mm 0.00 W/m2
01:59 23.3 °C 20.6 °C 1009 hPa SSE 1.6 km/h 3.2 km/h 85% 0 mm 0.00 W/m2
02:04 23.3 °C 20.6 °C 1009 hPa South 4.8 km/h 4.8 km/h 85% 0 mm 0.00 W/m2
02:09 23.3 °C 20.6 °C 1009 hPa NW 11.3 km/h 12.9 km/h 86% 0 mm 0.00 W/m2
02:14 23.3 °C 20.6 °C 1009 hPa NW 14.5 km/h 14.5 km/h 86% 0 mm 0.00 W/m2
02:19 23.3 °C 20.6 °C 1009 hPa NW 16.1 km/h 17.7 km/h 86% 0 mm 0.00 W/m2
02:24 23.3 °C 20.6 °C 1009 hPa NW 16.1 km/h 16.1 km/h 86% 0 mm 0.00 W/m2
02:29 23.3 °C 20.6 °C 1009 hPa NW 11.3 km/h 11.3 km/h 86% 0 mm 0.00 W/m2
02:34 23.3 °C 20.6 °C 1009 hPa NW 9.7 km/h 11.3 km/h 86% 0 mm 0.00 W/m2
02:39 23.3 °C 20.6 °C 1012.4 hPa WNW 27.4 km/h 27.4 km/h 86% 0.25 mm 0.00 W/m2
02:44 22.8 °C 20.6 °C 1012.4 hPa West 30.6 km/h 37 km/h 86% 0.25 mm 0.00 W/m2
02:49 21.7 °C 18.3 °C 1012.4 hPa WNW 32.2 km/h 32.2 km/h 82% 0.51 mm 0.00 W/m2
02:54 20.6 °C 17.2 °C 1012.4 hPa NW 30.6 km/h 32.2 km/h 83% 0.76 mm 0.00 W/m2
02:59 19.4 °C 16.7 °C 1012.4 hPa WNW 25.7 km/h 32.2 km/h 84% 1.27 mm 0.00 W/m2
03:04 18.9 °C 16.1 °C 1012.4 hPa NW 30.6 km/h 35.4 km/h 85% 1.52 mm 0.00 W/m2
03:09 18.9 °C 16.1 °C 1012.4 hPa NW 29 km/h 29 km/h 86% 2.03 mm 0.00 W/m2
03:14 18.3 °C 16.1 °C 1012.4 hPa NW 27.4 km/h 29 km/h 87% 2.29 mm 0.00 W/m2
03:19 18.3 °C 16.1 °C 1012.4 hPa NW 29 km/h 29 km/h 87% 2.79 mm 0.00 W/m2
03:24 18.3 °C 16.1 °C 1012.4 hPa WNW 17.7 km/h 29 km/h 88% 3.05 mm 0.00 W/m2
03:29 18.3 °C 16.1 °C 1012.4 hPa WNW 22.5 km/h 22.5 km/h 88% 3.3 mm 0.00 W/m2
03:34 18.3 °C 16.1 °C 1012.4 hPa WNW 22.5 km/h 22.5 km/h 88% 3.56 mm 0.00 W/m2
03:39 18.3 °C 16.1 °C 1012.4 hPa NW 16.1 km/h 16.1 km/h 89% 3.81 mm 0.00 W/m2
03:44 17.8 °C 16.1 °C 1012.4 hPa WNW 12.9 km/h 12.9 km/h 89% 4.06 mm 0.00 W/m2
03:49 17.8 °C 16.1 °C 1012.4 hPa NW 12.9 km/h 14.5 km/h 89% 4.06 mm 0.00 W/m2
03:54 17.8 °C 16.1 °C 1012.4 hPa NW 17.7 km/h 17.7 km/h 89% 4.32 mm 0.00 W/m2
03:59 17.8 °C 16.1 °C 1012.4 hPa NW 16.1 km/h 17.7 km/h 89% 4.06 mm 0.00 W/m2
04:04 17.8 °C 16.1 °C 1012.4 hPa NNW 16.1 km/h 17.7 km/h 89% 4.06 mm 0.00 W/m2
04:09 17.8 °C 16.1 °C 1012.4 hPa NW 14.5 km/h 17.7 km/h 89% 4.06 mm 0.00 W/m2
04:14 17.8 °C 16.1 °C 1012.4 hPa NW 14.5 km/h 14.5 km/h 90% 3.81 mm 0.00 W/m2
04:19 17.8 °C 16.1 °C 1012.4 hPa WNW 8 km/h 8 km/h 90% 3.81 mm 0.00 W/m2
04:24 17.8 °C 16.1 °C 1012.4 hPa NW 6.4 km/h 8 km/h 90% 3.81 mm 0.00 W/m2
04:29 17.8 °C 16.1 °C 1012.4 hPa North 8 km/h 8 km/h 90% 3.81 mm 0.00 W/m2
04:34 17.8 °C 16.1 °C 1012.4 hPa NNE 6.4 km/h 8 km/h 90% 3.81 mm 0.00 W/m2
04:39 17.8 °C 16.1 °C 1012.4 hPa ENE 4.8 km/h 8 km/h 90% 3.56 mm 0.00 W/m2
04:44 17.8 °C 16.1 °C 1012.4 hPa ESE 4.8 km/h 8 km/h 90% 3.56 mm 0.00 W/m2
04:49 17.8 °C 16.1 °C 1012.4 hPa ESE 3.2 km/h 4.8 km/h 90% 3.56 mm 0.00 W/m2
04:54 17.8 °C 16.1 °C 1012.4 hPa ESE 4.8 km/h 4.8 km/h 90% 3.56 mm 0.00 W/m2
05:04 17.8 °C 16.1 °C 1012.4 hPa ESE 9.7 km/h 11.3 km/h 90% 3.56 mm 0.00 W/m2
05:09 17.8 °C 16.1 °C 1009 hPa SE 11.3 km/h 11.3 km/h 90% 3.56 mm 0.00 W/m2
05:14 17.8 °C 16.1 °C 1009 hPa SE 12.9 km/h 14.5 km/h 90% 3.56 mm 0.00 W/m2
05:19 17.8 °C 16.1 °C 1009 hPa SE 16.1 km/h 16.1 km/h 90% 3.56 mm 0.00 W/m2
05:24 17.8 °C 16.1 °C 1009 hPa SE 14.5 km/h 14.5 km/h 90% 3.56 mm 0.00 W/m2
05:29 17.8 °C 16.1 °C 1009 hPa SE 14.5 km/h 14.5 km/h 90% 3.81 mm 0.00 W/m2
05:34 17.8 °C 16.1 °C 1009 hPa ESE 9.7 km/h 14.5 km/h 90% 3.81 mm 0.00 W/m2
05:39 17.8 °C 16.1 °C 1009 hPa SE 12.9 km/h 12.9 km/h 90% 3.81 mm 0.00 W/m2
05:44 17.8 °C 16.1 °C 1009 hPa SE 17.7 km/h 20.9 km/h 91% 3.81 mm 0.00 W/m2
05:49 17.8 °C 16.1 °C 1009 hPa SE 9.7 km/h 14.5 km/h 91% 3.56 mm 0.00 W/m2
05:54 17.8 °C 16.1 °C 1009 hPa East 11.3 km/h 12.9 km/h 91% 3.56 mm 0.00 W/m2
05:59 17.8 °C 16.1 °C 1009 hPa SE 16.1 km/h 20.9 km/h 91% 3.56 mm 0.00 W/m2
06:04 17.8 °C 16.1 °C 1009 hPa SE 17.7 km/h 20.9 km/h 91% 3.56 mm 0.00 W/m2
06:09 17.8 °C 16.1 °C 1009 hPa ENE 6.4 km/h 14.5 km/h 91% 3.3 mm 0.00 W/m2
06:14 17.8 °C 16.1 °C 1009 hPa ESE 4.8 km/h 8 km/h 91% 3.3 mm 0.00 W/m2
06:19 17.8 °C 16.1 °C 1009 hPa SW 6.4 km/h 8 km/h 91% 3.3 mm 0.00 W/m2
06:24 17.8 °C 16.1 °C 1009 hPa North 8 km/h 9.7 km/h 91% 3.05 mm 0.00 W/m2
06:29 17.2 °C 16.1 °C 1009 hPa NNW 8 km/h 11.3 km/h 91% 3.05 mm 0.00 W/m2
06:34 17.2 °C 16.1 °C 1009 hPa ENE 6.4 km/h 11.3 km/h 91% 3.05 mm 0.00 W/m2
06:39 17.2 °C 16.1 °C 1009 hPa NNE 9.7 km/h 14.5 km/h 91% 2.79 mm 0.00 W/m2
06:44 17.2 °C 16.1 °C 1009 hPa ESE 14.5 km/h 14.5 km/h 91% 2.79 mm 0.00 W/m2
06:49 17.2 °C 16.1 °C 1009 hPa WSW 6.4 km/h 8 km/h 91% 2.54 mm 7.00 W/m2
06:54 17.2 °C 16.1 °C 1009 hPa South 3.2 km/h 8 km/h 91% 2.54 mm 12.00 W/m2
06:59 17.2 °C 16.1 °C 1009 hPa SSE 4.8 km/h 4.8 km/h 91% 2.29 mm 16.00 W/m2
07:04 17.2 °C 16.1 °C 1009 hPa SSE 1.6 km/h 3.2 km/h 91% 2.29 mm 16.00 W/m2
07:09 17.2 °C 16.1 °C 1009 hPa SSE 4.8 km/h 6.4 km/h 91% 2.29 mm 21.00 W/m2
07:14 17.8 °C 16.1 °C 1009 hPa SE 6.4 km/h 11.3 km/h 91% 2.29 mm 32.00 W/m2
07:19 17.8 °C 16.1 °C 1009 hPa SE 11.3 km/h 11.3 km/h 91% 2.03 mm 35.00 W/m2
07:24 17.8 °C 16.1 °C 1009 hPa SSE 9.7 km/h 9.7 km/h 91% 2.03 mm 32.00 W/m2
07:29 17.8 °C 16.1 °C 1009 hPa SSE 6.4 km/h 8 km/h 91% 1.78 mm 39.00 W/m2
07:34 17.8 °C 16.1 °C 1009 hPa SSE 8 km/h 8 km/h 91% 1.52 mm 49.00 W/m2
07:39 17.8 °C 16.1 °C 1009 hPa SSE 8 km/h 9.7 km/h 91% 1.52 mm 51.00 W/m2
07:44 17.8 °C 16.1 °C 1009 hPa SSE 6.4 km/h 8 km/h 91% 1.27 mm 56.00 W/m2
07:49 17.8 °C 16.1 °C 1009 hPa SSE 8 km/h 8 km/h 91% 1.02 mm 56.00 W/m2
07:54 17.8 °C 16.7 °C 1009 hPa SSE 3.2 km/h 6.4 km/h 92% 1.02 mm 58.00 W/m2
07:59 17.8 °C 16.7 °C 1009 hPa South 4.8 km/h 6.4 km/h 92% 0.76 mm 65.00 W/m2
08:04 17.8 °C 16.7 °C 1009 hPa South 6.4 km/h 6.4 km/h 92% 0.51 mm 76.00 W/m2
08:09 17.8 °C 16.1 °C 1009 hPa SSE 6.4 km/h 6.4 km/h 91% 0.51 mm 77.00 W/m2
08:14 17.8 °C 16.7 °C 1012.4 hPa WNW 11.3 km/h 11.3 km/h 92% 0.25 mm 84.00 W/m2
08:19 17.8 °C 16.7 °C 1012.4 hPa NW 14.5 km/h 14.5 km/h 92% 0.25 mm 114.00 W/m2
08:24 18.3 °C 16.7 °C 1012.4 hPa WNW 12.9 km/h 12.9 km/h 92% 0.25 mm 127.00 W/m2
08:29 18.3 °C 16.7 °C 1012.4 hPa West 12.9 km/h 12.9 km/h 92% 0 mm 137.00 W/m2
08:34 18.3 °C 16.7 °C 1012.4 hPa WNW 9.7 km/h 11.3 km/h 92% 0 mm 155.00 W/m2
08:39 18.3 °C 16.7 °C 1012.4 hPa NW 12.9 km/h 14.5 km/h 92% 0 mm 162.00 W/m2
08:44 18.3 °C 16.7 °C 1012.4 hPa NW 11.3 km/h 14.5 km/h 92% 0 mm 172.00 W/m2
08:49 18.3 °C 16.7 °C 1012.4 hPa WNW 8 km/h 9.7 km/h 92% 0 mm 172.00 W/m2
08:54 18.3 °C 17.2 °C 1012.4 hPa WNW 8 km/h 9.7 km/h 92% 0 mm 186.00 W/m2
08:59 18.3 °C 17.2 °C 1012.4 hPa WNW 8 km/h 11.3 km/h 92% 0 mm 199.00 W/m2
09:04 18.3 °C 17.2 °C 1012.4 hPa WNW 14.5 km/h 14.5 km/h 92% 0 mm 211.00 W/m2
09:09 18.3 °C 17.2 °C 1012.4 hPa WNW 6.4 km/h 14.5 km/h 92% 0 mm 220.00 W/m2
09:14 18.3 °C 17.2 °C 1012.4 hPa West 12.9 km/h 12.9 km/h 92% 0 mm 246.00 W/m2
09:19 18.3 °C 17.2 °C 1012.4 hPa WNW 8 km/h 12.9 km/h 92% 0 mm 265.00 W/m2
09:24 18.9 °C 17.2 °C 1012.4 hPa West 6.4 km/h 6.4 km/h 92% 0 mm 287.00 W/m2
09:29 18.9 °C 17.2 °C 1012.4 hPa NW 9.7 km/h 11.3 km/h 92% 0 mm 287.00 W/m2
09:34 18.9 °C 17.2 °C 1012.4 hPa NW 12.9 km/h 12.9 km/h 92% 0 mm 313.00 W/m2
09:39 18.9 °C 17.2 °C 1012.4 hPa NW 9.7 km/h 12.9 km/h 92% 0 mm 313.00 W/m2
09:44 18.9 °C 17.2 °C 1012.4 hPa NNW 12.9 km/h 12.9 km/h 92% 0 mm 301.00 W/m2
09:49 18.9 °C 17.2 °C 1012.4 hPa NW 12.9 km/h 14.5 km/h 92% 0 mm 348.00 W/m2
09:54 18.9 °C 17.8 °C 1012.4 hPa NW 14.5 km/h 14.5 km/h 92% 0 mm 348.00 W/m2
09:59 18.9 °C 17.8 °C 1012.4 hPa WNW 12.9 km/h 14.5 km/h 92% 0 mm 355.00 W/m2
10:04 18.9 °C 17.8 °C 1012.4 hPa WNW 11.3 km/h 12.9 km/h 91% 0 mm 570.00 W/m2
10:09 19.4 °C 17.8 °C 1012.4 hPa WNW 11.3 km/h 14.5 km/h 91% 0 mm 570.00 W/m2
10:14 19.4 °C 17.8 °C 1012.4 hPa NW 14.5 km/h 14.5 km/h 91% 0 mm 496.00 W/m2
10:19 19.4 °C 17.8 °C 1012.4 hPa NNW 14.5 km/h 14.5 km/h 91% 0 mm 605.00 W/m2
10:24 20 °C 18.3 °C 1012.4 hPa NW 12.9 km/h 14.5 km/h 90% 0 mm 737.00 W/m2
10:29 20 °C 18.3 °C 1012.4 hPa NW 17.7 km/h 17.7 km/h 90% 0 mm 737.00 W/m2
10:34 20.6 °C 18.3 °C 1012.4 hPa NNW 12.9 km/h 14.5 km/h 89% 0 mm 737.00 W/m2
10:39 20.6 °C 18.3 °C 1012.4 hPa NW 14.5 km/h 14.5 km/h 88% 0 mm 292.00 W/m2
10:44 20.6 °C 18.3 °C 1012.4 hPa NW 11.3 km/h 19.3 km/h 87% 0 mm 631.00 W/m2
10:49 20.6 °C 18.3 °C 1012.4 hPa WNW 14.5 km/h 19.3 km/h 86% 0 mm 698.00 W/m2
10:54 21.1 °C 18.3 °C 1012.4 hPa NW 14.5 km/h 14.5 km/h 85% 0 mm 698.00 W/m2
10:59 21.7 °C 18.3 °C 1012.4 hPa WNW 12.9 km/h 14.5 km/h 84% 0 mm 798.00 W/m2
11:04 21.7 °C 18.3 °C 1012.4 hPa NW 14.5 km/h 17.7 km/h 83% 0 mm 844.00 W/m2
11:09 21.7 °C 18.3 °C 1012.4 hPa WNW 14.5 km/h 14.5 km/h 81% 0 mm 844.00 W/m2
11:14 22.2 °C 17.8 °C 1012.4 hPa NNW 14.5 km/h 17.7 km/h 78% 0 mm 1002.00 W/m2
11:19 22.2 °C 17.8 °C 1012.4 hPa WNW 11.3 km/h 12.9 km/h 77% 0 mm 1027.00 W/m2
11:24 22.8 °C 18.3 °C 1012.4 hPa NNW 14.5 km/h 14.5 km/h 76% 0 mm 993.00 W/m2
11:29 22.8 °C 18.3 °C 1012.4 hPa NW 16.1 km/h 17.7 km/h 76% 0 mm 967.00 W/m2
11:34 23.3 °C 18.3 °C 1012.4 hPa NNW 16.1 km/h 16.1 km/h 74% 0 mm 940.00 W/m2
11:39 23.3 °C 18.3 °C 1012.4 hPa NW 12.9 km/h 16.1 km/h 74% 0 mm 932.00 W/m2
11:44 23.9 °C 18.3 °C 1012.4 hPa NNW 8 km/h 9.7 km/h 73% 0 mm 958.00 W/m2
11:49 23.9 °C 18.3 °C 1012.4 hPa WSW 12.9 km/h 12.9 km/h 72% 0 mm 1018.00 W/m2
11:54 23.9 °C 18.3 °C 1012.4 hPa West 12.9 km/h 14.5 km/h 71% 0 mm 946.00 W/m2
11:59 23.9 °C 18.3 °C 1012.4 hPa WSW 11.3 km/h 14.5 km/h 70% 0 mm 969.00 W/m2
12:04 24.4 °C 18.3 °C 1012.4 hPa NW 16.1 km/h 16.1 km/h 69% 0 mm 942.00 W/m2
12:09 24.4 °C 18.3 °C 1012.4 hPa NNW 12.9 km/h 16.1 km/h 69% 0 mm 977.00 W/m2
12:14 24.4 °C 18.3 °C 1012.4 hPa West 8 km/h 8 km/h 69% 0 mm 933.00 W/m2
12:19 25 °C 18.9 °C 1012.4 hPa WSW 11.3 km/h 11.3 km/h 69% 0 mm 953.00 W/m2
12:24 25 °C 18.9 °C 1012.4 hPa West 9.7 km/h 11.3 km/h 68% 0 mm 984.00 W/m2
12:29 25.6 °C 18.3 °C 1012.4 hPa WSW 6.4 km/h 8 km/h 67% 0 mm 990.00 W/m2
12:34 25.6 °C 18.9 °C 1012.4 hPa WSW 9.7 km/h 14.5 km/h 66% 0 mm 967.00 W/m2
12:39 25.6 °C 18.3 °C 1012.4 hPa WNW 9.7 km/h 14.5 km/h 64% 0 mm 868.00 W/m2
12:44 25.6 °C 18.3 °C 1012.4 hPa North 6.4 km/h 8 km/h 64% 0 mm 868.00 W/m2
12:49 26.1 °C 18.9 °C 1012.4 hPa SW 9.7 km/h 9.7 km/h 66% 0 mm 911.00 W/m2
12:54 26.1 °C 18.9 °C 1012.4 hPa NW 12.9 km/h 12.9 km/h 64% 0 mm 944.00 W/m2
12:59 26.1 °C 18.9 °C 1012.4 hPa West 8 km/h 9.7 km/h 64% 0 mm 1000.00 W/m2
13:04 26.1 °C 18.9 °C 1012.4 hPa NW 8 km/h 9.7 km/h 63% 0 mm 965.00 W/m2
13:09 26.7 °C 18.9 °C 1012.4 hPa WNW 12.9 km/h 12.9 km/h 63% 0 mm 970.00 W/m2
13:14 26.1 °C 18.3 °C 1012.4 hPa NNW 4.8 km/h 12.9 km/h 62% 0 mm 1028.00 W/m2
13:19 26.7 °C 18.9 °C 1012.4 hPa NW 8 km/h 11.3 km/h 63% 0 mm 1151.00 W/m2
13:24 26.7 °C 18.9 °C 1012.4 hPa West 12.9 km/h 14.5 km/h 63% 0 mm 1144.00 W/m2
13:29 26.7 °C 18.9 °C 1012.4 hPa WNW 12.9 km/h 12.9 km/h 61% 0 mm 1116.00 W/m2
13:34 27.2 °C 18.9 °C 1012.4 hPa NW 16.1 km/h 16.1 km/h 61% 0 mm 1129.00 W/m2
13:39 27.2 °C 18.9 °C 1012.4 hPa NW 14.5 km/h 16.1 km/h 61% 0 mm 1129.00 W/m2
13:44 27.2 °C 18.9 °C 1012.4 hPa NNW 9.7 km/h 16.1 km/h 61% 0 mm 1134.00 W/m2
13:49 27.2 °C 18.9 °C 1012.4 hPa West 14.5 km/h 14.5 km/h 60% 0 mm 1071.00 W/m2
13:54 27.8 °C 18.9 °C 1012.4 hPa West 12.9 km/h 14.5 km/h 60% 0 mm 1092.00 W/m2
13:59 27.8 °C 18.9 °C 1012.4 hPa WSW 16.1 km/h 16.1 km/h 59% 0 mm 1092.00 W/m2
14:04 27.8 °C 18.9 °C 1012.4 hPa West 17.7 km/h 17.7 km/h 58% 0 mm 1118.00 W/m2
14:09 27.8 °C 18.9 °C 1012.4 hPa NW 17.7 km/h 19.3 km/h 58% 0 mm 341.00 W/m2
14:14 27.8 °C 18.9 °C 1012.4 hPa NW 16.1 km/h 19.3 km/h 59% 0 mm 334.00 W/m2
14:19 27.2 °C 18.9 °C 1012.4 hPa NW 14.5 km/h 16.1 km/h 60% 0 mm 1162.00 W/m2
14:24 27.2 °C 18.3 °C 1012.4 hPa NW 14.5 km/h 14.5 km/h 59% 0 mm 1114.00 W/m2
14:29 27.2 °C 18.3 °C 1012.4 hPa NNW 17.7 km/h 17.7 km/h 59% 0 mm 1148.00 W/m2
14:34 27.2 °C 18.9 °C 1012.4 hPa NW 14.5 km/h 17.7 km/h 60% 0 mm 1067.00 W/m2
14:39 27.2 °C 18.9 °C 1012.4 hPa NW 16.1 km/h 17.7 km/h 60% 0 mm 1060.00 W/m2
14:44 27.2 °C 18.9 °C 1012.4 hPa NW 11.3 km/h 17.7 km/h 59% 0 mm 1076.00 W/m2
14:49 27.2 °C 18.9 °C 1012.4 hPa NW 17.7 km/h 19.3 km/h 60% 0 mm 958.00 W/m2
14:54 27.2 °C 18.3 °C 1012.4 hPa NW 12.9 km/h 12.9 km/h 58% 0 mm 1032.00 W/m2
14:59 27.2 °C 18.3 °C 1012.4 hPa NNW 17.7 km/h 19.3 km/h 58% 0 mm 1046.00 W/m2
15:04 27.2 °C 18.9 °C 1012.4 hPa NNW 17.7 km/h 17.7 km/h 59% 0 mm 1028.00 W/m2
15:09 27.8 °C 18.9 °C 1012.4 hPa WNW 17.7 km/h 17.7 km/h 58% 0 mm 905.00 W/m2
15:14 27.8 °C 18.9 °C 1012.4 hPa NW 12.9 km/h 14.5 km/h 58% 0 mm 895.00 W/m2
15:19 28.3 °C 18.3 °C 1012.4 hPa WNW 8 km/h 12.9 km/h 56% 0 mm 888.00 W/m2
15:24 28.3 °C 18.3 °C 1012.4 hPa West 14.5 km/h 16.1 km/h 56% 0 mm 884.00 W/m2
15:29 28.3 °C 17.8 °C 1012.4 hPa WNW 16.1 km/h 20.9 km/h 53% 0 mm 881.00 W/m2
15:34 28.3 °C 17.8 °C 1012.4 hPa WNW 16.1 km/h 16.1 km/h 54% 0 mm 889.00 W/m2
15:39 28.3 °C 18.3 °C 1012.4 hPa NNW 17.7 km/h 19.3 km/h 55% 0 mm 858.00 W/m2
15:44 28.3 °C 17.8 °C 1012.4 hPa NNW 20.9 km/h 20.9 km/h 54% 0 mm 831.00 W/m2
15:49 28.3 °C 17.8 °C 1012.4 hPa WNW 14.5 km/h 19.3 km/h 53% 0 mm 823.00 W/m2
15:54 28.3 °C 17.8 °C 1012.4 hPa West 14.5 km/h 19.3 km/h 52% 0 mm 814.00 W/m2
15:59 28.3 °C 17.8 °C 1012.4 hPa NW 16.1 km/h 16.1 km/h 53% 0 mm 788.00 W/m2
16:04 28.3 °C 17.8 °C 1012.4 hPa West 14.5 km/h 14.5 km/h 53% 0 mm 788.00 W/m2
16:09 28.3 °C 18.3 °C 1012.4 hPa West 16.1 km/h 19.3 km/h 55% 0 mm 782.00 W/m2
16:14 28.3 °C 18.9 °C 1012.4 hPa NNW 16.1 km/h 17.7 km/h 56% 0 mm 763.00 W/m2
16:19 28.3 °C 18.9 °C 1012.4 hPa West 11.3 km/h 14.5 km/h 56% 0 mm 752.00 W/m2
16:24 28.9 °C 19.4 °C 1012.4 hPa NW 12.9 km/h 12.9 km/h 58% 0 mm 738.00 W/m2
16:29 28.9 °C 18.9 °C 1012.4 hPa NW 14.5 km/h 16.1 km/h 56% 0 mm 719.00 W/m2
16:34 28.9 °C 18.9 °C 1012.4 hPa NNW 14.5 km/h 16.1 km/h 56% 0 mm 707.00 W/m2
16:39 28.9 °C 18.9 °C 1012.4 hPa NNW 19.3 km/h 19.3 km/h 55% 0 mm 687.00 W/m2
16:44 28.9 °C 18.9 °C 1012.4 hPa NW 12.9 km/h 19.3 km/h 55% 0 mm 671.00 W/m2
16:49 28.9 °C 18.9 °C 1012.4 hPa WNW 16.1 km/h 17.7 km/h 55% 0 mm 654.00 W/m2
16:54 28.9 °C 18.3 °C 1012.4 hPa NW 17.7 km/h 17.7 km/h 54% 0 mm 640.00 W/m2
16:59 28.9 °C 18.3 °C 1012.4 hPa NNW 16.1 km/h 16.1 km/h 53% 0 mm 626.00 W/m2
17:04 28.9 °C 18.3 °C 1012.4 hPa NW 20.9 km/h 20.9 km/h 53% 0 mm 612.00 W/m2
17:09 28.3 °C 17.2 °C 1012.4 hPa West 16.1 km/h 17.7 km/h 50% 0 mm 587.00 W/m2
17:14 28.3 °C 17.8 °C 1012.4 hPa NW 12.9 km/h 16.1 km/h 52% 0 mm 577.00 W/m2
17:19 28.3 °C 17.8 °C 1012.4 hPa West 11.3 km/h 11.3 km/h 52% 0 mm 557.00 W/m2
17:24 28.9 °C 17.8 °C 1012.4 hPa WNW 19.3 km/h 19.3 km/h 51% 0 mm 540.00 W/m2
17:29 28.9 °C 17.8 °C 1012.4 hPa WNW 16.1 km/h 16.1 km/h 51% 0 mm 519.00 W/m2
17:34 28.9 °C 17.8 °C 1012.4 hPa NW 16.1 km/h 16.1 km/h 52% 0 mm 503.00 W/m2
17:39 28.3 °C 17.8 °C 1012.4 hPa NNW 14.5 km/h 17.7 km/h 53% 0 mm 483.00 W/m2
17:44 28.3 °C 18.3 °C 1012.4 hPa NW 9.7 km/h 17.7 km/h 54% 0 mm 466.00 W/m2
17:49 28.3 °C 18.3 °C 1012.4 hPa NNW 12.9 km/h 12.9 km/h 54% 0 mm 445.00 W/m2
17:54 28.3 °C 17.8 °C 1012.4 hPa NNW 12.9 km/h 12.9 km/h 53% 0 mm 436.00 W/m2
17:59 28.3 °C 17.8 °C 1012.4 hPa NNW 9.7 km/h 14.5 km/h 53% 0 mm 417.00 W/m2
18:04 28.3 °C 17.8 °C 1012.4 hPa NW 8 km/h 14.5 km/h 52% 0 mm 396.00 W/m2
18:09 28.3 °C 17.8 °C 1012.4 hPa NNW 12.9 km/h 14.5 km/h 53% 0 mm 376.00 W/m2
18:14 28.3 °C 17.8 °C 1012.4 hPa NW 14.5 km/h 14.5 km/h 53% 0 mm 357.00 W/m2
18:19 28.3 °C 17.8 °C 1012.4 hPa NW 12.9 km/h 14.5 km/h 53% 0 mm 343.00 W/m2
18:24 28.3 °C 17.8 °C 1012.4 hPa NW 9.7 km/h 14.5 km/h 53% 0 mm 325.00 W/m2
18:29 27.8 °C 17.8 °C 1012.4 hPa NW 12.9 km/h 12.9 km/h 53% 0 mm 302.00 W/m2
18:34 27.8 °C 17.2 °C 1012.4 hPa WNW 16.1 km/h 16.1 km/h 53% 0 mm 285.00 W/m2
18:39 27.8 °C 17.2 °C 1012.4 hPa NW 12.9 km/h 16.1 km/h 53% 0 mm 264.00 W/m2
18:44 27.8 °C 17.2 °C 1012.4 hPa WNW 8 km/h 9.7 km/h 53% 0 mm 253.00 W/m2
18:49 27.8 °C 17.2 °C 1012.4 hPa NW 8 km/h 9.7 km/h 53% 0 mm 234.00 W/m2
18:54 27.8 °C 17.8 °C 1012.4 hPa West 6.4 km/h 8 km/h 54% 0 mm 214.00 W/m2
18:59 27.8 °C 17.8 °C 1012.4 hPa NNW 14.5 km/h 14.5 km/h 54% 0 mm 197.00 W/m2
19:04 27.2 °C 17.2 °C 1012.4 hPa NW 14.5 km/h 14.5 km/h 54% 0 mm 176.00 W/m2
19:09 27.2 °C 17.2 °C 1012.4 hPa WNW 8 km/h 9.7 km/h 55% 0 mm 155.00 W/m2
19:14 27.2 °C 17.2 °C 1012.4 hPa NW 6.4 km/h 6.4 km/h 55% 0 mm 134.00 W/m2
19:19 27.2 °C 17.2 °C 1012.4 hPa NNW 9.7 km/h 9.7 km/h 55% 0 mm 65.00 W/m2
19:24 26.7 °C 17.2 °C 1012.4 hPa NNW 9.7 km/h 9.7 km/h 55% 0 mm 44.00 W/m2
19:29 26.7 °C 16.7 °C 1012.4 hPa NNW 12.9 km/h 12.9 km/h 55% 0 mm 39.00 W/m2
19:34 26.1 °C 16.7 °C 1012.4 hPa NNW 8 km/h 9.7 km/h 56% 0 mm 33.00 W/m2
19:39 26.1 °C 16.7 °C 1012.4 hPa North 6.4 km/h 8 km/h 57% 0 mm 32.00 W/m2
19:44 26.1 °C 16.7 °C 1012.4 hPa North 4.8 km/h 4.8 km/h 57% 0 mm 26.00 W/m2
19:49 26.1 °C 16.7 °C 1012.4 hPa NNW 6.4 km/h 6.4 km/h 57% 0 mm 23.00 W/m2
19:54 25.6 °C 16.7 °C 1012.4 hPa NNW 4.8 km/h 6.4 km/h 57% 0 mm 21.00 W/m2
19:59 25.6 °C 16.7 °C 1012.4 hPa NNE 6.4 km/h 6.4 km/h 57% 0 mm 18.00 W/m2
20:04 25.6 °C 16.7 °C 1012.4 hPa NNW 6.4 km/h 6.4 km/h 57% 0 mm 12.00 W/m2
20:09 25.6 °C 16.7 °C 1012.4 hPa NW 4.8 km/h 6.4 km/h 58% 0 mm 11.00 W/m2
20:14 25 °C 16.1 °C 1012.4 hPa NW 3.2 km/h 3.2 km/h 58% 0 mm 7.00 W/m2
20:19 25 °C 16.7 °C 1012.4 hPa NW 4.8 km/h 4.8 km/h 59% 0 mm 0.00 W/m2
20:24 25 °C 16.7 °C 1012.4 hPa NW 3.2 km/h 4.8 km/h 59% 0 mm 0.00 W/m2
20:29 25 °C 16.1 °C 1012.4 hPa NW 4.8 km/h 4.8 km/h 59% 0 mm 0.00 W/m2
20:34 25 °C 16.7 °C 1012.4 hPa NW 3.2 km/h 3.2 km/h 60% 0 mm 0.00 W/m2
20:39 25 °C 16.7 °C 1012.4 hPa NW 3.2 km/h 3.2 km/h 60% 0 mm 0.00 W/m2
20:44 24.4 °C 16.7 °C 1012.4 hPa NW 4.8 km/h 4.8 km/h 61% 0 mm 0.00 W/m2
20:49 24.4 °C 16.7 °C 1012.4 hPa NW 3.2 km/h 3.2 km/h 61% 0 mm 0.00 W/m2
20:54 24.4 °C 16.1 °C 1012.4 hPa NW 3.2 km/h 3.2 km/h 61% 0 mm 0.00 W/m2
20:59 23.9 °C 16.7 °C 1012.4 hPa NW 3.2 km/h 3.2 km/h 62% 0 mm 0.00 W/m2
21:04 23.9 °C 16.1 °C 1012.4 hPa NW 3.2 km/h 3.2 km/h 62% 0 mm 0.00 W/m2
21:09 23.9 °C 16.1 °C 1012.4 hPa NW 3.2 km/h 3.2 km/h 63% 0 mm 0.00 W/m2
21:14 23.9 °C 16.1 °C 1012.4 hPa NW 3.2 km/h 3.2 km/h 63% 0 mm 0.00 W/m2
21:19 23.3 °C 16.1 °C 1015.8 hPa NW 3.2 km/h 3.2 km/h 64% 0 mm 0.00 W/m2
21:24 23.3 °C 16.1 °C 1015.8 hPa NW 3.2 km/h 3.2 km/h 65% 0 mm 0.00 W/m2
21:29 23.3 °C 16.1 °C 1015.8 hPa NW 3.2 km/h 3.2 km/h 65% 0 mm 0.00 W/m2
21:34 23.3 °C 16.1 °C 1015.8 hPa NW 1.6 km/h 3.2 km/h 65% 0 mm 0.00 W/m2
21:39 22.8 °C 16.1 °C 1015.8 hPa NW 4.8 km/h 4.8 km/h 65% 0 mm 0.00 W/m2
21:44 22.8 °C 16.1 °C 1015.8 hPa NW 3.2 km/h 3.2 km/h 66% 0 mm 0.00 W/m2
21:49 22.8 °C 16.1 °C 1015.8 hPa NW 3.2 km/h 3.2 km/h 66% 0 mm 0.00 W/m2
21:54 22.8 °C 16.1 °C 1015.8 hPa NW 3.2 km/h 3.2 km/h 67% 0 mm 0.00 W/m2
21:59 22.2 °C 16.1 °C 1015.8 hPa NW 3.2 km/h 4.8 km/h 67% 0 mm 0.00 W/m2
22:04 22.2 °C 16.1 °C 1015.8 hPa NW 4.8 km/h 4.8 km/h 68% 0 mm 0.00 W/m2
22:09 22.2 °C 16.1 °C 1015.8 hPa NW 3.2 km/h 4.8 km/h 68% 0 mm 0.00 W/m2
22:14 22.2 °C 16.1 °C 1015.8 hPa NW 1.6 km/h 3.2 km/h 68% 0 mm 0.00 W/m2
22:19 22.2 °C 16.1 °C 1015.8 hPa NW 1.6 km/h 1.6 km/h 68% 0 mm 0.00 W/m2
22:24 22.2 °C 15.6 °C 1015.8 hPa NW 4.8 km/h 4.8 km/h 68% 0 mm 0.00 W/m2
22:29 21.7 °C 16.1 °C 1015.8 hPa NW 1.6 km/h 3.2 km/h 69% 0 mm 0.00 W/m2
22:34 21.7 °C 16.1 °C 1015.8 hPa NW 3.2 km/h 3.2 km/h 69% 0 mm 0.00 W/m2
22:39 21.7 °C 15.6 °C 1015.8 hPa NW 1.6 km/h 3.2 km/h 69% 0 mm 0.00 W/m2
22:44 21.7 °C 15.6 °C 1015.8 hPa NW 1.6 km/h 1.6 km/h 69% 0 mm 0.00 W/m2
22:49 21.7 °C 15.6 °C 1015.8 hPa Calm   1.6 km/h 69% 0 mm 0.00 W/m2
22:54 21.1 °C 15.6 °C 1015.8 hPa Calm     69% 0 mm 0.00 W/m2
22:59 21.1 °C 15.6 °C 1015.8 hPa NW 1.6 km/h 1.6 km/h 69% 0 mm 0.00 W/m2
23:04 21.1 °C 15.6 °C 1015.8 hPa NW 1.6 km/h 1.6 km/h 70% 0 mm 0.00 W/m2
23:09 21.1 °C 15 °C 1015.8 hPa NW 3.2 km/h 3.2 km/h 70% 0 mm 0.00 W/m2
23:14 21.1 °C 15.6 °C 1015.8 hPa NW 1.6 km/h 3.2 km/h 71% 0 mm 0.00 W/m2
23:19 20.6 °C 15.6 °C 1015.8 hPa NW 3.2 km/h 3.2 km/h 71% 0 mm 0.00 W/m2
23:24 20.6 °C 15.6 °C 1015.8 hPa NW 3.2 km/h 3.2 km/h 71% 0 mm 0.00 W/m2
23:29 20.6 °C 15 °C 1015.8 hPa NW 3.2 km/h 3.2 km/h 71% 0 mm 0.00 W/m2
23:34 20.6 °C 15 °C 1015.8 hPa NW 3.2 km/h 3.2 km/h 72% 0 mm 0.00 W/m2
23:39 20.6 °C 15 °C 1015.8 hPa NW 1.6 km/h 3.2 km/h 72% 0 mm 0.00 W/m2
23:44 20 °C 15 °C 1015.8 hPa NW 1.6 km/h 1.6 km/h 72% 0 mm 0.00 W/m2
23:49 20 °C 15 °C 1015.8 hPa NW 1.6 km/h 3.2 km/h 72% 0 mm 0.00 W/m2
23:54 20 °C 15 °C 1015.8 hPa NW 1.6 km/h 1.6 km/h 72% 0 mm 0.00 W/m2
23:59 20 °C 15 °C 1015.8 hPa NW 1.6 km/h 1.6 km/h 73% 0 mm 0.00 W/m2
Villages of Bridgestone, Spring, TX USA
Compliments of Weather Underground - 4 mb